37.7°F
Current conditions from King Hill
Updated every 5 minutes
 
  Friday April 25, 2014

Station Historical Data
Daily Summary for May 14, 2012 Units:  English    Metric   Both
« Previous Day
Next Day »
Daily Weekly Monthly Yearly Custom
  High: Low: Average:
Temperature: 73.0 °F 48.0 °F 60 °F
Dew Point: 58.7 °F 46.4 °F 52.4 °F
Humidity: 96% 51% 78%
Wind Speed: 9.0mph 0.0mph 4mph
Wind Gust: 19.0mph - -
Wind- - SSW
Pressure: 30.10 in 29.99 in -
Precipitation: 0.00 in    
Historical Graphs
 
 
Tabular Data for May 14, 2012
Time Temperature Dew Point Pressure Wind Wind Speed Wind Gust Humidity Daily Rainfall
00:05 50.3 °F 47.8 °F 30.09 in Calm     91% 0.00 in
00:10 50.2 °F 47.7 °F 30.09 in Calm     91% 0.00 in
00:15 50.3 °F 47.8 °F 30.08 in Calm     91% 0.00 in
00:19 50.3 °F 47.8 °F 30.08 in Calm     91% 0.00 in
00:25 50.4 °F 48.2 °F 30.08 in Calm     92% 0.00 in
00:35 50.2 °F 48.0 °F 30.08 in Calm     92% 0.00 in
00:40 50.2 °F 48.0 °F 30.08 in Calm     92% 0.00 in
00:45 50.2 °F 48.0 °F 30.08 in Calm     92% 0.00 in
00:50 50.2 °F 48.0 °F 30.08 in Calm     92% 0.00 in
00:55 50.2 °F 48.0 °F 30.08 in Calm     92% 0.00 in
01:05 50.3 °F 48.1 °F 30.07 in Calm     92% 0.00 in
01:10 50.3 °F 48.4 °F 30.07 in Calm     93% 0.00 in
01:15 50.3 °F 48.4 °F 30.07 in Calm     93% 0.00 in
01:20 50.2 °F 48.3 °F 30.07 in Calm     93% 0.00 in
01:24 50.1 °F 48.2 °F 30.07 in Calm     93% 0.00 in
01:30 50.1 °F 48.2 °F 30.07 in Calm     93% 0.00 in
01:34 50.1 °F 48.2 °F 30.07 in Calm     93% 0.00 in
01:40 50.0 °F 48.1 °F 30.07 in Calm     93% 0.00 in
01:45 50.0 °F 48.1 °F 30.07 in Calm     93% 0.00 in
01:50 50.1 °F 48.2 °F 30.07 in Calm   2.0 mph 93% 0.00 in
01:55 50.4 °F 48.7 °F 30.06 in Calm   2.0 mph 94% 0.00 in
02:00 50.4 °F 48.7 °F 30.06 in Calm     94% 0.00 in
02:10 50.3 °F 48.6 °F 30.06 in Calm   1.0 mph 94% 0.00 in
02:20 50.2 °F 48.5 °F 30.06 in Calm     94% 0.00 in
02:25 50.1 °F 48.4 °F 30.06 in Calm     94% 0.00 in
02:35 50.0 °F 48.3 °F 30.06 in Calm     94% 0.00 in
02:39 49.9 °F 48.2 °F 30.06 in Calm     94% 0.00 in
02:45 49.9 °F 48.2 °F 30.06 in Calm     94% 0.00 in
02:55 50.0 °F 48.3 °F 30.06 in Calm     94% 0.00 in
03:05 49.9 °F 48.2 °F 30.05 in Calm     94% 0.00 in
03:09 49.9 °F 48.2 °F 30.05 in Calm     94% 0.00 in
03:14 49.9 °F 48.2 °F 30.05 in Calm     94% 0.00 in
03:19 49.9 °F 48.2 °F 30.05 in Calm     94% 0.00 in
03:25 49.9 °F 48.2 °F 30.05 in Calm     94% 0.00 in
03:35 49.4 °F 47.7 °F 30.06 in Calm     94% 0.00 in
03:40 49.2 °F 47.5 °F 30.06 in Calm     94% 0.00 in
03:49 48.8 °F 47.2 °F 30.06 in Calm     94% 0.00 in
03:55 48.6 °F 47.0 °F 30.06 in Calm     94% 0.00 in
04:04 48.6 °F 47.0 °F 30.06 in Calm     94% 0.00 in
04:09 48.7 °F 47.1 °F 30.06 in Calm     94% 0.00 in
04:14 48.5 °F 46.9 °F 30.06 in Calm     94% 0.00 in
04:20 48.1 °F 46.5 °F 30.06 in Calm     94% 0.00 in
04:24 48.0 °F 46.4 °F 30.06 in Calm     94% 0.00 in
04:30 48.0 °F 46.4 °F 30.06 in Calm     94% 0.00 in
04:34 48.2 °F 46.6 °F 30.06 in Calm     94% 0.00 in
04:40 48.5 °F 46.9 °F 30.06 in Calm     94% 0.00 in
04:50 48.7 °F 47.3 °F 30.06 in Calm     95% 0.00 in
04:54 48.8 °F 47.4 °F 30.06 in Calm     95% 0.00 in
05:00 49.0 °F 47.6 °F 30.06 in Calm     95% 0.00 in
05:05 49.2 °F 47.8 °F 30.06 in Calm     95% 0.00 in
05:09 49.2 °F 47.8 °F 30.06 in Calm     95% 0.00 in
05:14 49.2 °F 47.8 °F 30.06 in Calm     95% 0.00 in
05:19 49.4 °F 48.0 °F 30.06 in Calm     95% 0.00 in
05:30 49.8 °F 48.4 °F 30.06 in Calm     95% 0.00 in
05:35 49.9 °F 48.5 °F 30.06 in Calm     95% 0.00 in
05:44 49.9 °F 48.5 °F 30.06 in Calm     95% 0.00 in
05:49 49.9 °F 48.5 °F 30.07 in Calm     95% 0.00 in
05:55 49.9 °F 48.5 °F 30.07 in Calm     95% 0.00 in
05:59 50.0 °F 48.6 °F 30.07 in Calm     95% 0.00 in
06:05 50.0 °F 48.6 °F 30.07 in Calm     95% 0.00 in
06:10 50.1 °F 48.7 °F 30.07 in Calm     95% 0.00 in
06:19 50.4 °F 49.0 °F 30.08 in Calm     95% 0.00 in
06:24 50.6 °F 49.2 °F 30.08 in Calm     95% 0.00 in
06:30 50.7 °F 49.3 °F 30.08 in Calm     95% 0.00 in
06:35 50.9 °F 49.5 °F 30.08 in Calm     95% 0.00 in
06:40 51.1 °F 49.7 °F 30.08 in Calm     95% 0.00 in
06:49 51.6 °F 50.5 °F 30.08 in Calm     96% 0.00 in
06:54 51.8 °F 50.4 °F 30.08 in Calm     95% 0.00 in
07:00 51.8 °F 50.4 °F 30.08 in Calm     95% 0.00 in
07:04 51.8 °F 50.4 °F 30.08 in Calm     95% 0.00 in
07:10 51.9 °F 50.5 °F 30.08 in Calm     95% 0.00 in
07:15 52.0 °F 50.6 °F 30.08 in Calm     95% 0.00 in
07:19 52.1 °F 50.7 °F 30.08 in Calm     95% 0.00 in
07:24 52.2 °F 50.8 °F 30.08 in Calm     95% 0.00 in
07:30 52.4 °F 51.0 °F 30.08 in Calm     95% 0.00 in
07:35 52.4 °F 51.0 °F 30.09 in Calm     95% 0.00 in
07:40 52.5 °F 51.1 °F 30.09 in Calm     95% 0.00 in
07:50 52.9 °F 51.2 °F 30.09 in Calm     94% 0.00 in
07:55 53.3 °F 51.6 °F 30.09 in Calm     94% 0.00 in
08:00 53.7 °F 52.0 °F 30.09 in Calm     94% 0.00 in
08:09 54.2 °F 51.9 °F 30.09 in Calm     92% 0.00 in
08:15 54.4 °F 51.5 °F 30.09 in Calm     90% 0.00 in
08:25 55.1 °F 51.3 °F 30.09 in Calm     87% 0.00 in
08:29 55.5 °F 51.4 °F 30.10 in Calm     86% 0.00 in
08:35 55.7 °F 50.6 °F 30.10 in Calm     83% 0.00 in
08:45 56.7 °F 51.3 °F 30.10 in Calm     82% 0.00 in
08:50 57.2 °F 51.4 °F 30.10 in Calm     81% 0.00 in
08:55 57.7 °F 51.6 °F 30.10 in Calm     80% 0.00 in
09:05 58.6 °F 52.1 °F 30.10 in Calm   3.0 mph 79% 0.00 in
09:14 59.0 °F 51.8 °F 30.10 in Calm     77% 0.00 in
09:19 59.0 °F 51.1 °F 30.10 in SW 1.0 mph 4.0 mph 75% 0.00 in
09:24 59.1 °F 51.5 °F 30.10 in SW 1.0 mph 5.0 mph 76% 0.00 in
09:30 59.7 °F 51.8 °F 30.10 in Calm   5.0 mph 75% 0.00 in
09:40 60.2 °F 51.1 °F 30.09 in SSW 3.0 mph 6.0 mph 72% 0.00 in
09:50 60.5 °F 50.7 °F 30.09 in SW 5.0 mph 8.0 mph 70% 0.00 in
09:54 60.9 °F 51.4 °F 30.09 in SSW 3.0 mph 8.0 mph 71% 0.00 in
09:59 61.2 °F 50.6 °F 30.09 in SSW 6.0 mph 8.0 mph 68% 0.00 in
10:04 61.3 °F 52.2 °F 30.09 in SSW 3.0 mph 8.0 mph 72% 0.00 in
10:09 61.3 °F 51.4 °F 30.09 in SW 3.0 mph 9.0 mph 70% 0.00 in
10:14 60.6 °F 50.8 °F 30.09 in SSW 3.0 mph 10.0 mph 70% 0.00 in
10:19 60.3 °F 50.9 °F 30.09 in SW 5.0 mph 10.0 mph 71% 0.00 in
10:25 60.9 °F 52.2 °F 30.09 in SW 3.0 mph 10.0 mph 73% 0.00 in
10:29 60.3 °F 51.2 °F 30.09 in SW 5.0 mph 11.0 mph 72% 0.00 in
10:34 60.0 °F 51.7 °F 30.09 in SW 2.0 mph 11.0 mph 74% 0.00 in
10:39 59.8 °F 51.9 °F 30.09 in SSW 3.0 mph 10.0 mph 75% 0.00 in
10:44 59.6 °F 52.0 °F 30.08 in SW 5.0 mph 10.0 mph 76% 0.00 in
10:49 60.1 °F 52.9 °F 30.08 in WSW 5.0 mph 10.0 mph 77% 0.00 in
10:54 60.9 °F 52.9 °F 30.09 in SW 5.0 mph 8.0 mph 75% 0.00 in
10:59 61.4 °F 53.4 °F 30.08 in SW 6.0 mph 10.0 mph 75% 0.00 in
11:04 61.8 °F 53.8 °F 30.08 in SSW 2.0 mph 10.0 mph 75% 0.00 in
11:09 61.9 °F 53.9 °F 30.08 in SW 2.0 mph 10.0 mph 75% 0.00 in
11:14 61.8 °F 53.8 °F 30.08 in SW 5.0 mph 11.0 mph 75% 0.00 in
11:19 61.8 °F 54.2 °F 30.08 in SW 2.0 mph 11.0 mph 76% 0.00 in
11:24 61.8 °F 53.8 °F 30.08 in SSW 6.0 mph 10.0 mph 75% 0.00 in
11:29 62.0 °F 54.4 °F 30.08 in SW 4.0 mph 10.0 mph 76% 0.00 in
11:35 62.2 °F 53.8 °F 30.08 in SSW 6.0 mph 12.0 mph 74% 0.00 in
11:40 62.3 °F 53.9 °F 30.08 in SW 3.0 mph 12.0 mph 74% 0.00 in
11:45 62.7 °F 55.0 °F 30.08 in SSW 2.0 mph 13.0 mph 76% 0.00 in
11:50 62.9 °F 54.5 °F 30.08 in SSW 5.0 mph 13.0 mph 74% 0.00 in
11:54 62.8 °F 54.0 °F 30.08 in SW 6.0 mph 13.0 mph 73% 0.00 in
11:59 63.2 °F 54.8 °F 30.07 in WSW 4.0 mph 11.0 mph 74% 0.00 in
12:05 63.4 °F 55.0 °F 30.07 in SW 2.0 mph 10.0 mph 74% 0.00 in
12:14 64.8 °F 55.6 °F 30.06 in SSW 1.0 mph 12.0 mph 72% 0.00 in
12:19 65.5 °F 55.9 °F 30.06 in SW 3.0 mph 12.0 mph 71% 0.00 in
12:24 65.8 °F 55.0 °F 30.06 in SW 5.0 mph 11.0 mph 68% 0.00 in
12:29 65.6 °F 54.8 °F 30.06 in SW 7.0 mph 15.0 mph 68% 0.00 in
12:35 65.3 °F 54.9 °F 30.06 in SW 6.0 mph 15.0 mph 69% 0.00 in
12:44 65.3 °F 56.1 °F 30.05 in SW 1.0 mph 9.0 mph 72% 0.00 in
12:50 65.9 °F 55.5 °F 30.05 in SSW 3.0 mph 9.0 mph 69% 0.00 in
12:54 66.5 °F 56.4 °F 30.05 in SSW 1.0 mph 9.0 mph 70% 0.00 in
12:59 67.4 °F 56.9 °F 30.05 in SSW 4.0 mph 10.0 mph 69% 0.00 in
13:04 68.1 °F 57.2 °F 30.05 in SW 2.0 mph 10.0 mph 68% 0.00 in
13:09 67.8 °F 56.5 °F 30.05 in SW 4.0 mph 12.0 mph 67% 0.00 in
13:14 68.2 °F 56.8 °F 30.05 in SSW 4.0 mph 13.0 mph 67% 0.00 in
13:19 69.5 °F 58.1 °F 30.05 in SW 3.0 mph 13.0 mph 67% 0.00 in
13:25 69.9 °F 57.6 °F 30.04 in SSW 5.0 mph 13.0 mph 65% 0.00 in
13:29 70.4 °F 58.1 °F 30.04 in South 2.0 mph 13.0 mph 65% 0.00 in
13:34 70.7 °F 57.5 °F 30.04 in SSW 2.0 mph 12.0 mph 63% 0.00 in
13:39 71.0 °F 58.7 °F 30.04 in SSW 3.0 mph 9.0 mph 65% 0.00 in
13:44 71.2 °F 56.2 °F 30.04 in SSW 5.0 mph 12.0 mph 59% 0.00 in
13:49 71.2 °F 56.6 °F 30.03 in SSW 3.0 mph 12.0 mph 60% 0.00 in
13:54 70.9 °F 57.2 °F 30.03 in SSW 4.0 mph 14.0 mph 62% 0.00 in
13:59 71.8 °F 55.3 °F 30.03 in SSW 7.0 mph 14.0 mph 56% 0.00 in
14:04 72.1 °F 55.6 °F 30.03 in SSW 4.0 mph 14.0 mph 56% 0.00 in
14:09 71.6 °F 54.1 °F 30.03 in SSW 7.0 mph 14.0 mph 54% 0.00 in
14:14 71.4 °F 54.4 °F 30.03 in South 4.0 mph 14.0 mph 55% 0.00 in
14:19 71.8 °F 55.8 °F 30.03 in SSW 5.0 mph 12.0 mph 57% 0.00 in
14:24 71.7 °F 55.7 °F 30.02 in WSW 1.0 mph 12.0 mph 57% 0.00 in
14:29 72.2 °F 55.2 °F 30.02 in South 3.0 mph 9.0 mph 55% 0.00 in
14:35 72.1 °F 56.0 °F 30.02 in SSW 4.0 mph 13.0 mph 57% 0.00 in
14:44 70.9 °F 54.9 °F 30.02 in SSW 4.0 mph 19.0 mph 57% 0.00 in
14:49 71.4 °F 54.9 °F 30.01 in SSW 4.0 mph 19.0 mph 56% 0.00 in
14:55 71.7 °F 55.7 °F 30.01 in SW 5.0 mph 14.0 mph 57% 0.00 in
15:04 71.5 °F 54.0 °F 30.01 in SSW 9.0 mph 16.0 mph 54% 0.00 in
15:09 70.3 °F 53.4 °F 30.01 in SSW 5.0 mph 16.0 mph 55% 0.00 in
15:14 70.0 °F 54.6 °F 30.01 in SSW 5.0 mph 15.0 mph 58% 0.00 in
15:19 70.0 °F 54.1 °F 30.00 in SW 6.0 mph 11.0 mph 57% 0.00 in
15:24 71.3 °F 55.8 °F 30.00 in SSW 3.0 mph 12.0 mph 58% 0.00 in
15:30 72.2 °F 55.2 °F 30.00 in SSW 3.0 mph 12.0 mph 55% 0.00 in
15:35 73.0 °F 57.4 °F 30.00 in South 1.0 mph 10.0 mph 58% 0.00 in
15:45 72.5 °F 54.4 °F 30.00 in SW 5.0 mph 13.0 mph 53% 0.00 in
15:55 72.6 °F 55.5 °F 30.00 in SSW 1.0 mph 12.0 mph 55% 0.00 in
16:04 72.9 °F 53.7 °F 29.99 in WSW 4.0 mph 15.0 mph 51% 0.00 in
16:09 71.6 °F 52.5 °F 29.99 in SW 8.0 mph 15.0 mph 51% 0.00 in
16:14 70.8 °F 52.3 °F 29.99 in SW 4.0 mph 14.0 mph 52% 0.00 in
16:19 70.8 °F 54.3 °F 29.99 in SW 2.0 mph 11.0 mph 56% 0.00 in
16:24 71.5 °F 55.0 °F 29.99 in SSW 3.0 mph 12.0 mph 56% 0.00 in
16:29 71.3 °F 53.3 °F 29.99 in SSW 5.0 mph 14.0 mph 53% 0.00 in
16:34 71.4 °F 53.9 °F 29.99 in SSW 3.0 mph 14.0 mph 54% 0.00 in
16:39 71.3 °F 54.8 °F 29.99 in SSW 2.0 mph 11.0 mph 56% 0.00 in
16:44 71.3 °F 54.8 °F 29.99 in SSW 4.0 mph 14.0 mph 56% 0.00 in
16:49 71.3 °F 55.3 °F 29.99 in SSW 4.0 mph 14.0 mph 57% 0.00 in
16:55 70.7 °F 55.2 °F 29.99 in SSW 3.0 mph 12.0 mph 58% 0.00 in
17:04 68.9 °F 54.0 °F 29.99 in SW 7.0 mph 16.0 mph 59% 0.00 in
17:09 68.7 °F 54.3 °F 29.99 in SSW 5.0 mph 13.0 mph 60% 0.00 in
17:14 68.5 °F 54.1 °F 30.00 in SSW 5.0 mph 12.0 mph 60% 0.00 in
17:19 68.3 °F 54.8 °F 29.99 in SSW 5.0 mph 12.0 mph 62% 0.00 in
17:25 68.3 °F 54.8 °F 30.00 in SW 6.0 mph 13.0 mph 62% 0.00 in
17:34 68.3 °F 54.8 °F 29.99 in SSW 5.0 mph 15.0 mph 62% 0.00 in
17:39 68.4 °F 55.3 °F 29.99 in SSW 5.0 mph 13.0 mph 63% 0.00 in
17:45 68.1 °F 55.0 °F 29.99 in SW 5.0 mph 13.0 mph 63% 0.00 in
17:50 67.7 °F 54.7 °F 29.99 in SW 6.0 mph 13.0 mph 63% 0.00 in
17:59 67.6 °F 55.4 °F 29.99 in SSW 4.0 mph 13.0 mph 65% 0.00 in
18:04 67.4 °F 55.2 °F 29.99 in SSW 5.0 mph 17.0 mph 65% 0.00 in
18:10 67.2 °F 55.0 °F 29.99 in SSW 5.0 mph 17.0 mph 65% 0.00 in
18:19 67.0 °F 55.3 °F 29.99 in SSW 6.0 mph 14.0 mph 66% 0.00 in
18:24 66.8 °F 55.1 °F 29.99 in SSW 3.0 mph 14.0 mph 66% 0.00 in
18:30 66.8 °F 55.5 °F 29.99 in South 1.0 mph 14.0 mph 67% 0.00 in
18:34 66.7 °F 55.8 °F 29.99 in Calm   7.0 mph 68% 0.00 in
18:39 66.4 °F 55.1 °F 29.99 in SW 2.0 mph 9.0 mph 67% 0.00 in
18:45 66.1 °F 55.2 °F 29.99 in Calm   9.0 mph 68% 0.00 in
18:49 65.9 °F 54.6 °F 29.99 in SSW 2.0 mph 10.0 mph 67% 0.00 in
18:54 65.8 °F 54.5 °F 29.99 in SW 2.0 mph 10.0 mph 67% 0.00 in
19:00 65.6 °F 54.4 °F 29.99 in SSW 1.0 mph 8.0 mph 67% 0.00 in
19:04 65.3 °F 54.5 °F 29.99 in SW 3.0 mph 8.0 mph 68% 0.00 in
19:09 65.1 °F 54.3 °F 30.00 in SSW 2.0 mph 7.0 mph 68% 0.00 in
19:14 65.0 °F 54.2 °F 30.00 in SSW 3.0 mph 8.0 mph 68% 0.00 in
19:19 64.7 °F 53.9 °F 29.99 in SSW 4.0 mph 9.0 mph 68% 0.00 in
19:24 64.5 °F 54.1 °F 30.00 in SW 1.0 mph 10.0 mph 69% 0.00 in
19:30 64.4 °F 54.0 °F 30.00 in SSW 2.0 mph 11.0 mph 69% 0.00 in
19:34 64.2 °F 53.8 °F 29.99 in SSW 2.0 mph 11.0 mph 69% 0.00 in
19:39 64.0 °F 54.0 °F 30.00 in SW 1.0 mph 11.0 mph 70% 0.00 in
19:44 63.9 °F 53.9 °F 30.00 in SW 3.0 mph 8.0 mph 70% 0.00 in
19:49 63.8 °F 53.8 °F 30.00 in SSW 2.0 mph 8.0 mph 70% 0.00 in
19:54 63.7 °F 54.1 °F 30.00 in SSW 1.0 mph 8.0 mph 71% 0.00 in
19:59 63.6 °F 54.0 °F 30.00 in Calm   9.0 mph 71% 0.00 in
20:05 63.4 °F 53.8 °F 30.00 in SW 3.0 mph 9.0 mph 71% 0.00 in
20:14 63.1 °F 53.9 °F 30.00 in SSW 3.0 mph 8.0 mph 72% 0.00 in
20:19 63.0 °F 54.2 °F 30.00 in SSW 1.0 mph 8.0 mph 73% 0.00 in
20:24 62.7 °F 53.9 °F 30.00 in SW 2.0 mph 7.0 mph 73% 0.00 in
20:29 62.6 °F 53.8 °F 30.00 in SSW 2.0 mph 9.0 mph 73% 0.00 in
20:35 62.5 °F 54.1 °F 30.00 in SSW 1.0 mph 9.0 mph 74% 0.00 in
20:45 62.4 °F 54.0 °F 30.00 in SW 7.0 mph 12.0 mph 74% 0.00 in
20:55 62.8 °F 54.0 °F 30.01 in SW 4.0 mph 14.0 mph 73% 0.00 in
21:00 62.7 °F 53.9 °F 30.01 in SSW 4.0 mph 14.0 mph 73% 0.00 in
21:09 62.8 °F 54.8 °F 30.01 in SSW 7.0 mph 14.0 mph 75% 0.00 in
21:14 62.7 °F 54.7 °F 30.01 in SSW 5.0 mph 14.0 mph 75% 0.00 in
21:19 62.7 °F 54.7 °F 30.01 in SW 5.0 mph 13.0 mph 75% 0.00 in
21:25 62.7 °F 55.0 °F 30.01 in SSW 5.0 mph 13.0 mph 76% 0.00 in
21:34 62.3 °F 55.0 °F 30.01 in SSW 5.0 mph 14.0 mph 77% 0.00 in
21:40 62.4 °F 55.1 °F 30.01 in SSW 7.0 mph 14.0 mph 77% 0.00 in
21:50 62.3 °F 55.0 °F 30.02 in SSW 5.0 mph 11.0 mph 77% 0.00 in
21:59 62.1 °F 55.2 °F 30.02 in SSW 6.0 mph 13.0 mph 78% 0.00 in
22:04 62.0 °F 55.1 °F 30.02 in SW 3.0 mph 16.0 mph 78% 0.00 in
22:09 62.0 °F 55.1 °F 30.02 in SSW 5.0 mph 16.0 mph 78% 0.00 in
22:14 61.8 °F 54.9 °F 30.02 in SSW 7.0 mph 14.0 mph 78% 0.00 in
22:19 61.7 °F 54.8 °F 30.02 in SSW 5.0 mph 14.0 mph 78% 0.00 in
22:25 61.4 °F 54.5 °F 30.02 in SSW 5.0 mph 14.0 mph 78% 0.00 in
22:34 61.0 °F 54.4 °F 30.02 in SW 6.0 mph 19.0 mph 79% 0.00 in
22:39 60.8 °F 54.6 °F 30.02 in SW 9.0 mph 15.0 mph 80% 0.00 in
22:45 60.7 °F 54.5 °F 30.02 in SW 6.0 mph 15.0 mph 80% 0.00 in
22:54 60.4 °F 54.5 °F 30.02 in SSW 4.0 mph 15.0 mph 81% 0.00 in
22:59 60.3 °F 54.5 °F 30.02 in SSW 7.0 mph 16.0 mph 81% 0.00 in
23:04 60.3 °F 54.5 °F 30.02 in SW 7.0 mph 18.0 mph 81% 0.00 in
23:09 60.1 °F 54.3 °F 30.02 in SSW 8.0 mph 18.0 mph 81% 0.00 in
23:14 60.0 °F 54.2 °F 30.02 in SSW 7.0 mph 18.0 mph 81% 0.00 in
23:19 59.9 °F 54.1 °F 30.02 in SSW 9.0 mph 16.0 mph 81% 0.00 in
23:24 59.9 °F 54.1 °F 30.02 in SSW 4.0 mph 16.0 mph 81% 0.00 in
23:29 59.8 °F 54.0 °F 30.02 in SSW 4.0 mph 12.0 mph 81% 0.00 in
23:34 59.7 °F 53.9 °F 30.02 in SSW 4.0 mph 13.0 mph 81% 0.00 in
23:39 59.6 °F 53.8 °F 30.02 in SW 2.0 mph 13.0 mph 81% 0.00 in
23:45 59.7 °F 53.9 °F 30.02 in SSW 4.0 mph 11.0 mph 81% 0.00 in
23:49 59.7 °F 53.9 °F 30.02 in South 1.0 mph 11.0 mph 81% 0.00 in
23:54 59.7 °F 53.9 °F 30.02 in SSW 4.0 mph 13.0 mph 81% 0.00 in
23:59 59.8 °F 54.0 °F 30.02 in South 4.0 mph 13.0 mph 81% 0.00 in
Westford Weather
Compliments of Weather Underground

 
 
Current Radar Loop:

Copyright © WestfordWeather.net 2007-2014. All rights reserved.